Hafnia Rainier — 9V3226 — position and weather

sailwx.info

Track history (hours):
 
Tides and Currents Weather Stations Pressure Air Temp Water Temp Dewpoint Dewpoint Depression Visibility Wind Speed Wind Dir Waves Ship Positions

Hafnia Rainier

Last reported at 2018-Feb-20 05:59 UTC. Time now 2018-Feb-20 06:11 UTC.
Position N 57°41' E 011°53'.

Length 182 m; draft 9.9 m.

Type: Ship. MMSI: 565969000.

Date/timePositionNaut miles runAvg speedWind from/ knotsBaromVisibWave heightAir tempDewpointWater temp
2018-Feb-20 05:59N 57°41' E 011°53'0 0.0
2018-Feb-20 05:29N 57°41' E 011°53'0 0.0
2018-Feb-20 04:59N 57°41' E 011°53'0 0.0
2018-Feb-20 04:30N 57°41' E 011°53'0 0.8
2018-Feb-20 04:00N 57°41' E 011°52'3 6.4
2018-Feb-20 03:30N 57°40' E 011°47'5 9.4
2018-Feb-20 03:00N 57°37' E 011°40'3 6.5
2018-Feb-20 02:31N 57°33' E 011°40'0 0.1
2018-Feb-20 01:59N 57°34' E 011°40'0 0.0
2018-Feb-20 01:29N 57°34' E 011°40'0 0.1
2018-Feb-20 00:59N 57°34' E 011°40'0 0.0
2018-Feb-20 00:29N 57°34' E 011°40'0 0.0
2018-Feb-19 23:59N 57°34' E 011°40'0 0.0
2018-Feb-19 23:29N 57°34' E 011°40'0 0.0
2018-Feb-19 22:59N 57°34' E 011°40'0 0.0
2018-Feb-19 22:29N 57°34' E 011°40'0 0.0
2018-Feb-19 21:59N 57°34' E 011°40'0 0.0
2018-Feb-19 21:29N 57°34' E 011°40'0 0.0
2018-Feb-19 20:59N 57°34' E 011°40'0 0.0
2018-Feb-19 20:29N 57°34' E 011°40'0 0.0
2018-Feb-19 19:59N 57°34' E 011°40'0 0.0
2018-Feb-19 19:29N 57°34' E 011°40'0 0.0
2018-Feb-19 18:59N 57°34' E 011°40'0 0.0
2018-Feb-19 18:29N 57°34' E 011°40'0 0.0
2018-Feb-19 17:59N 57°34' E 011°40'0 0.0
2018-Feb-19 17:29N 57°34' E 011°40'0 0.0
2018-Feb-19 16:59N 57°34' E 011°40'0 0.0
2018-Feb-19 16:29N 57°34' E 011°40'0 0.0
2018-Feb-19 15:59N 57°34' E 011°40'0 0.1
2018-Feb-19 15:29N 57°34' E 011°40'0 0.0
2018-Feb-19 14:59N 57°34' E 011°40'0 0.0
2018-Feb-19 14:29N 57°34' E 011°40'0 0.0
2018-Feb-19 13:59N 57°34' E 011°40'0 0.0
2018-Feb-19 13:29N 57°34' E 011°40'0 0.0
2018-Feb-19 12:59N 57°34' E 011°40'0 0.0
2018-Feb-19 12:29N 57°34' E 011°40'0 0.0
2018-Feb-19 11:59N 57°34' E 011°40'0 0.0
2018-Feb-19 11:29N 57°34' E 011°40'0 0.0
2018-Feb-19 10:59N 57°34' E 011°40'0 0.0
2018-Feb-19 10:29N 57°34' E 011°40'0 0.0
2018-Feb-19 09:56N 57°34' E 011°40'0 0.0
2018-Feb-19 09:29N 57°34' E 011°40'0 0.0
2018-Feb-19 08:59N 57°34' E 011°40'0 0.0
2018-Feb-19 08:29N 57°34' E 011°41'0 0.0
2018-Feb-19 07:59N 57°34' E 011°41'0 0.0
2018-Feb-19 07:29N 57°34' E 011°41'0 0.0
2018-Feb-19 06:59N 57°34' E 011°41'0 0.0
2018-Feb-19 06:29N 57°34' E 011°41'0 0.0
2018-Feb-19 05:59N 57°34' E 011°41'0 0.0
2018-Feb-19 05:29N 57°34' E 011°41'0 0.2
2018-Feb-19 04:59N 57°34' E 011°40'1 1.7
2018-Feb-19 04:30N 57°33' E 011°39'510.5
2018-Feb-19 04:00N 57°29' E 011°34'611.0
2018-Feb-19 03:30N 57°24' E 011°31'611.0
2018-Feb-19 03:00N 57°18' E 011°33'611.3
2018-Feb-19 02:30N 57°13' E 011°36'611.3
2018-Feb-19 02:00N 57°08' E 011°40'611.3
2018-Feb-19 01:30N 57°02' E 011°44'2110.7
2018-Feb-18 23:33N 56°42' E 011°51'511.6
2018-Feb-18 23:09N 56°38' E 011°47'  
2018-Feb-14 20:26N 57°05' E 011°39'4 8.1
2018-Feb-14 19:59N 57°08' E 011°37'4 7.9
2018-Feb-14 19:30N 57°12' E 011°34'4 7.5
2018-Feb-14 19:00N 57°15' E 011°32'2 4.9
2018-Feb-14 18:30N 57°18' E 011°30'3 5.3
2018-Feb-14 18:00N 57°20' E 011°29'3 5.7
2018-Feb-14 17:30N 57°23' E 011°27'4 7.3
2018-Feb-14 17:00N 57°26' E 011°25'4 8.8
2018-Feb-14 16:30N 57°30' E 011°19'4 8.2
2018-Feb-14 16:00N 57°32' E 011°13'4 7.7
2018-Feb-14 15:30N 57°35' E 011°09'4 7.6
2018-Feb-14 15:00N 57°38' E 011°04'4 7.9
2018-Feb-14 14:29N 57°41' E 010°59'4 8.3
2018-Feb-14 14:00N 57°44' E 010°55'4 8.5
2018-Feb-14 13:30N 57°48' E 010°51'4 8.4
2018-Feb-14 13:00N 57°50' E 010°44'510.3
2018-Feb-14 12:30N 57°50' E 010°34'510.1
2018-Feb-14 12:00N 57°51' E 010°25'5 9.9
2018-Feb-14 11:30N 57°50' E 010°16'5 9.9
2018-Feb-14 11:00N 57°50' E 010°06'343 9.8
2018-Feb-12 23:58N 53°25' E 003°41'78 9.0
2018-Feb-12 15:18N 52°07' E 003°38'3 9.8
2018-Feb-12 14:56N 52°08' E 003°43'1 1.1
2018-Feb-12 14:20N 52°08' E 003°44'0 0.0
2018-Feb-12 13:50N 52°08' E 003°44'0 0.0
2018-Feb-12 13:14N 52°08' E 003°44'0 0.0
2018-Feb-12 12:59N 52°08' E 003°44'0 0.0
2018-Feb-12 12:26N 52°08' E 003°44'0 0.0
2018-Feb-12 11:56N 52°08' E 003°44'0 0.0
2018-Feb-12 11:29N 52°08' E 003°44'0 0.1
2018-Feb-12 10:56N 52°08' E 003°44'0 0.1
2018-Feb-12 10:14N 52°08' E 003°44'0 0.1
2018-Feb-12 09:59N 52°08' E 003°44'0 0.0
2018-Feb-12 08:50N 52°08' E 003°44'0 0.0
2018-Feb-12 08:02N 52°08' E 003°44'0 0.1
2018-Feb-12 07:50N 52°08' E 003°44'0 0.0
2018-Feb-12 07:26N 52°08' E 003°44'0 0.0
2018-Feb-12 06:56N 52°08' E 003°44'0 0.0
2018-Feb-12 06:23N 52°08' E 003°44'0 0.0
2018-Feb-12 05:05N 52°08' E 003°44'0 0.1
2018-Feb-12 04:59N 52°08' E 003°44'0 0.0
2018-Feb-12 04:26N 52°08' E 003°44'0 0.0
2018-Feb-12 03:59N 52°08' E 003°44'0 0.1
2018-Feb-12 03:29N 52°08' E 003°44'0 0.1
2018-Feb-12 02:59N 52°08' E 003°44'0 0.1
2018-Feb-12 02:29N 52°08' E 003°44'0 0.0
2018-Feb-12 01:29N 52°08' E 003°44'0 0.0
2018-Feb-12 00:59N 52°08' E 003°44'0 0.0
2018-Feb-12 00:29N 52°08' E 003°44'0 0.1
2018-Feb-11 23:47N 52°08' E 003°44'0 0.0
2018-Feb-11 23:29N 52°08' E 003°44'0 0.0
2018-Feb-11 22:56N 52°08' E 003°44'0 0.0
2018-Feb-11 22:29N 52°08' E 003°44'0 0.0
2018-Feb-11 21:59N 52°08' E 003°44'0 0.1
2018-Feb-11 21:26N 52°08' E 003°44'0 0.0
2018-Feb-11 20:41N 52°08' E 003°44'0 0.1
2018-Feb-11 20:29N 52°08' E 003°44'0 0.0
2018-Feb-11 19:53N 52°08' E 003°44'0 0.0
2018-Feb-11 19:29N 52°08' E 003°44'0 0.0
2018-Feb-11 18:59N 52°08' E 003°44'0 0.0
2018-Feb-11 18:29N 52°08' E 003°44'0 0.0
2018-Feb-11 17:44N 52°08' E 003°44'0 0.0
2018-Feb-11 17:17N 52°08' E 003°44'0 0.0
2018-Feb-11 16:50N 52°08' E 003°44'0 0.0
2018-Feb-11 16:26N 52°08' E 003°44'0 0.0
2018-Feb-11 15:44N 52°08' E 003°44'0 0.0
2018-Feb-11 15:29N 52°08' E 003°44'0 0.0
2018-Feb-11 14:59N 52°08' E 003°44'0 0.0
2018-Feb-11 14:29N 52°08' E 003°44'0 0.0
2018-Feb-11 13:59N 52°08' E 003°44'0 0.0
2018-Feb-11 13:29N 52°08' E 003°44'0 0.1
2018-Feb-11 12:56N 52°08' E 003°44'0 0.0
2018-Feb-11 12:26N 52°08' E 003°44'0 0.0
2018-Feb-11 11:44N 52°08' E 003°44'0 0.1
2018-Feb-11 11:20N 52°08' E 003°44'0 0.0
2018-Feb-11 10:44N 52°08' E 003°44'0 0.0
2018-Feb-11 10:14N 52°08' E 003°44'0 0.0
2018-Feb-11 09:59N 52°08' E 003°44'0 0.0
2018-Feb-11 09:26N 52°08' E 003°44'0 0.1
2018-Feb-11 08:56N 52°08' E 003°44'0 0.1
2018-Feb-11 08:23N 52°08' E 003°44'0 0.0
2018-Feb-11 07:50N 52°08' E 003°44'0 0.2
2018-Feb-11 07:29N 52°08' E 003°44'0 0.1
2018-Feb-11 06:44N 52°08' E 003°44'0 0.0
2018-Feb-11 06:26N 52°08' E 003°44'0 0.1
2018-Feb-11 05:44N 52°08' E 003°44'0 0.2
2018-Feb-11 05:29N 52°08' E 003°44'0 0.1
2018-Feb-11 04:53N 52°08' E 003°44'0 0.2
2018-Feb-11 04:17N 52°08' E 003°44'0 0.1
2018-Feb-11 03:59N 52°08' E 003°44'0 0.1
2018-Feb-11 03:14N 52°08' E 003°44'0 0.0
2018-Feb-11 02:59N 52°08' E 003°44'0 0.1
2018-Feb-11 02:29N 52°08' E 003°44'0 0.1
2018-Feb-11 01:59N 52°08' E 003°44'0 0.0
2018-Feb-11 01:23N 52°08' E 003°44'0 0.0
2018-Feb-11 00:59N 52°08' E 003°44'0 0.0
2018-Feb-11 00:26N 52°08' E 003°44'0 0.1
2018-Feb-10 23:53N 52°08' E 003°44'0 0.1
2018-Feb-10 23:29N 52°08' E 003°44'0 0.1
2018-Feb-10 22:59N 52°08' E 003°44'0 0.0
2018-Feb-10 22:26N 52°08' E 003°44'0 0.0
2018-Feb-10 21:56N 52°08' E 003°44'0 0.0
2018-Feb-10 21:29N 52°08' E 003°44'0 0.0
2018-Feb-10 20:59N 52°08' E 003°44'0 0.0
2018-Feb-10 20:26N 52°08' E 003°44'0 0.1
2018-Feb-10 19:56N 52°08' E 003°44'0 0.2
2018-Feb-10 19:23N 52°08' E 003°44'0 0.1
2018-Feb-10 18:47N 52°08' E 003°44'0 0.1
2018-Feb-10 18:29N 52°08' E 003°44'0 0.0
2018-Feb-10 17:47N 52°08' E 003°44'0 0.0
2018-Feb-10 17:29N 52°08' E 003°44'0 0.0
2018-Feb-10 16:53N 52°08' E 003°44'0 0.1
2018-Feb-10 16:26N 52°08' E 003°44'0 0.0
2018-Feb-10 15:59N 52°08' E 003°44'0 0.1
2018-Feb-10 15:29N 52°08' E 003°44'0 0.0
2018-Feb-10 14:59N 52°08' E 003°44'0 0.0
2018-Feb-10 14:23N 52°08' E 003°44'0 0.1
2018-Feb-10 13:53N 52°08' E 003°44'0 0.0
2018-Feb-10 11:56N 52°08' E 003°44'0 0.0
2018-Feb-10 10:38N 52°08' E 003°44'0 0.0
2018-Feb-10 10:26N 52°08' E 003°44'0 0.0
2018-Feb-10 09:56N 52°08' E 003°44'0 0.0
2018-Feb-10 09:26N 52°08' E 003°44'0 0.0
2018-Feb-10 08:56N 52°08' E 003°44'0 0.1
2018-Feb-10 08:26N 52°08' E 003°44'0 0.0
2018-Feb-10 07:59N 52°08' E 003°44'0 0.1
2018-Feb-10 07:26N 52°08' E 003°44'0 0.0
2018-Feb-10 06:44N 52°08' E 003°44'0 0.0
2018-Feb-10 06:20N 52°08' E 003°44'  
Track history (hours):
 
Tides and Currents Weather Stations Pressure Air Temp Water Temp Dewpoint Dewpoint Depression Visibility Wind Speed Wind Dir Waves Ship Positions

Hafnia Rainier

Last reported at 2018-Feb-20 05:59 UTC. Time now 2018-Feb-20 06:11 UTC.
Position N 57°41' E 011°53'.

Length 182 m; draft 9.9 m.

Type: Ship. MMSI: 565969000.

Date/timePositionNaut miles runAvg speedWind from/ knotsBaromVisibWave heightAir tempDewpointWater temp
2018-Feb-20 05:59N 57°41' E 011°53'0 0.0
2018-Feb-20 05:29N 57°41' E 011°53'0 0.0
2018-Feb-20 04:59N 57°41' E 011°53'0 0.0
2018-Feb-20 04:30N 57°41' E 011°53'0 0.8
2018-Feb-20 04:00N 57°41' E 011°52'3 6.4
2018-Feb-20 03:30N 57°40' E 011°47'5 9.4
2018-Feb-20 03:00N 57°37' E 011°40'3 6.5
2018-Feb-20 02:31N 57°33' E 011°40'0 0.1
2018-Feb-20 01:59N 57°34' E 011°40'0 0.0
2018-Feb-20 01:29N 57°34' E 011°40'0 0.1
2018-Feb-20 00:59N 57°34' E 011°40'0 0.0
2018-Feb-20 00:29N 57°34' E 011°40'0 0.0
2018-Feb-19 23:59N 57°34' E 011°40'0 0.0
2018-Feb-19 23:29N 57°34' E 011°40'0 0.0
2018-Feb-19 22:59N 57°34' E 011°40'0 0.0
2018-Feb-19 22:29N 57°34' E 011°40'0 0.0
2018-Feb-19 21:59N 57°34' E 011°40'0 0.0
2018-Feb-19 21:29N 57°34' E 011°40'0 0.0
2018-Feb-19 20:59N 57°34' E 011°40'0 0.0
2018-Feb-19 20:29N 57°34' E 011°40'0 0.0
2018-Feb-19 19:59N 57°34' E 011°40'0 0.0
2018-Feb-19 19:29N 57°34' E 011°40'0 0.0
2018-Feb-19 18:59N 57°34' E 011°40'0 0.0
2018-Feb-19 18:29N 57°34' E 011°40'0 0.0
2018-Feb-19 17:59N 57°34' E 011°40'0 0.0
2018-Feb-19 17:29N 57°34' E 011°40'0 0.0
2018-Feb-19 16:59N 57°34' E 011°40'0 0.0
2018-Feb-19 16:29N 57°34' E 011°40'0 0.0
2018-Feb-19 15:59N 57°34' E 011°40'0 0.1
2018-Feb-19 15:29N 57°34' E 011°40'0 0.0
2018-Feb-19 14:59N 57°34' E 011°40'0 0.0
2018-Feb-19 14:29N 57°34' E 011°40'0 0.0
2018-Feb-19 13:59N 57°34' E 011°40'0 0.0
2018-Feb-19 13:29N 57°34' E 011°40'0 0.0
2018-Feb-19 12:59N 57°34' E 011°40'0 0.0
2018-Feb-19 12:29N 57°34' E 011°40'0 0.0
2018-Feb-19 11:59N 57°34' E 011°40'0 0.0
2018-Feb-19 11:29N 57°34' E 011°40'0 0.0
2018-Feb-19 10:59N 57°34' E 011°40'0 0.0
2018-Feb-19 10:29N 57°34' E 011°40'0 0.0
2018-Feb-19 09:56N 57°34' E 011°40'0 0.0
2018-Feb-19 09:29N 57°34' E 011°40'0 0.0
2018-Feb-19 08:59N 57°34' E 011°40'0 0.0
2018-Feb-19 08:29N 57°34' E 011°41'0 0.0
2018-Feb-19 07:59N 57°34' E 011°41'0 0.0
2018-Feb-19 07:29N 57°34' E 011°41'0 0.0
2018-Feb-19 06:59N 57°34' E 011°41'0 0.0
2018-Feb-19 06:29N 57°34' E 011°41'0 0.0
2018-Feb-19 05:59N 57°34' E 011°41'0 0.0
2018-Feb-19 05:29N 57°34' E 011°41'0 0.2
2018-Feb-19 04:59N 57°34' E 011°40'1 1.7
2018-Feb-19 04:30N 57°33' E 011°39'510.5
2018-Feb-19 04:00N 57°29' E 011°34'611.0
2018-Feb-19 03:30N 57°24' E 011°31'611.0
2018-Feb-19 03:00N 57°18' E 011°33'611.3
2018-Feb-19 02:30N 57°13' E 011°36'611.3
2018-Feb-19 02:00N 57°08' E 011°40'611.3
2018-Feb-19 01:30N 57°02' E 011°44'2110.7
2018-Feb-18 23:33N 56°42' E 011°51'511.6
2018-Feb-18 23:09N 56°38' E 011°47'  
2018-Feb-14 20:26N 57°05' E 011°39'4 8.1
2018-Feb-14 19:59N 57°08' E 011°37'4 7.9
2018-Feb-14 19:30N 57°12' E 011°34'4 7.5
2018-Feb-14 19:00N 57°15' E 011°32'2 4.9
2018-Feb-14 18:30N 57°18' E 011°30'3 5.3
2018-Feb-14 18:00N 57°20' E 011°29'3 5.7
2018-Feb-14 17:30N 57°23' E 011°27'4 7.3
2018-Feb-14 17:00N 57°26' E 011°25'4 8.8
2018-Feb-14 16:30N 57°30' E 011°19'4 8.2
2018-Feb-14 16:00N 57°32' E 011°13'4 7.7
2018-Feb-14 15:30N 57°35' E 011°09'4 7.6
2018-Feb-14 15:00N 57°38' E 011°04'4 7.9
2018-Feb-14 14:29N 57°41' E 010°59'4 8.3
2018-Feb-14 14:00N 57°44' E 010°55'4 8.5
2018-Feb-14 13:30N 57°48' E 010°51'4 8.4
2018-Feb-14 13:00N 57°50' E 010°44'510.3
2018-Feb-14 12:30N 57°50' E 010°34'510.1
2018-Feb-14 12:00N 57°51' E 010°25'5 9.9
2018-Feb-14 11:30N 57°50' E 010°16'5 9.9
2018-Feb-14 11:00N 57°50' E 010°06'343 9.8
2018-Feb-12 23:58N 53°25' E 003°41'78 9.0
2018-Feb-12 15:18N 52°07' E 003°38'3 9.8
2018-Feb-12 14:56N 52°08' E 003°43'1 1.1
2018-Feb-12 14:20N 52°08' E 003°44'0 0.0
2018-Feb-12 13:50N 52°08' E 003°44'0 0.0
2018-Feb-12 13:14N 52°08' E 003°44'0 0.0
2018-Feb-12 12:59N 52°08' E 003°44'0 0.0
2018-Feb-12 12:26N 52°08' E 003°44'0 0.0
2018-Feb-12 11:56N 52°08' E 003°44'0 0.0
2018-Feb-12 11:29N 52°08' E 003°44'0 0.1
2018-Feb-12 10:56N 52°08' E 003°44'0 0.1
2018-Feb-12 10:14N 52°08' E 003°44'0 0.1
2018-Feb-12 09:59N 52°08' E 003°44'0 0.0
2018-Feb-12 08:50N 52°08' E 003°44'0 0.0
2018-Feb-12 08:02N 52°08' E 003°44'0 0.1
2018-Feb-12 07:50N 52°08' E 003°44'0 0.0
2018-Feb-12 07:26N 52°08' E 003°44'0 0.0
2018-Feb-12 06:56N 52°08' E 003°44'0 0.0
2018-Feb-12 06:23N 52°08' E 003°44'0 0.0
2018-Feb-12 05:05N 52°08' E 003°44'0 0.1
2018-Feb-12 04:59N 52°08' E 003°44'0 0.0
2018-Feb-12 04:26N 52°08' E 003°44'0 0.0
2018-Feb-12 03:59N 52°08' E 003°44'0 0.1
2018-Feb-12 03:29N 52°08' E 003°44'0 0.1
2018-Feb-12 02:59N 52°08' E 003°44'0 0.1
2018-Feb-12 02:29N 52°08' E 003°44'0 0.0
2018-Feb-12 01:29N 52°08' E 003°44'0 0.0
2018-Feb-12 00:59N 52°08' E 003°44'0 0.0
2018-Feb-12 00:29N 52°08' E 003°44'0 0.1
2018-Feb-11 23:47N 52°08' E 003°44'0 0.0
2018-Feb-11 23:29N 52°08' E 003°44'0 0.0
2018-Feb-11 22:56N 52°08' E 003°44'0 0.0
2018-Feb-11 22:29N 52°08' E 003°44'0 0.0
2018-Feb-11 21:59N 52°08' E 003°44'0 0.1
2018-Feb-11 21:26N 52°08' E 003°44'0 0.0
2018-Feb-11 20:41N 52°08' E 003°44'0 0.1
2018-Feb-11 20:29N 52°08' E 003°44'0 0.0
2018-Feb-11 19:53N 52°08' E 003°44'0 0.0
2018-Feb-11 19:29N 52°08' E 003°44'0 0.0
2018-Feb-11 18:59N 52°08' E 003°44'0 0.0
2018-Feb-11 18:29N 52°08' E 003°44'0 0.0
2018-Feb-11 17:44N 52°08' E 003°44'0 0.0
2018-Feb-11 17:17N 52°08' E 003°44'0 0.0
2018-Feb-11 16:50N 52°08' E 003°44'0 0.0
2018-Feb-11 16:26N 52°08' E 003°44'0 0.0
2018-Feb-11 15:44N 52°08' E 003°44'0 0.0
2018-Feb-11 15:29N 52°08' E 003°44'0 0.0
2018-Feb-11 14:59N 52°08' E 003°44'0 0.0
2018-Feb-11 14:29N 52°08' E 003°44'0 0.0
2018-Feb-11 13:59N 52°08' E 003°44'0 0.0
2018-Feb-11 13:29N 52°08' E 003°44'0 0.1
2018-Feb-11 12:56N 52°08' E 003°44'0 0.0
2018-Feb-11 12:26N 52°08' E 003°44'0 0.0
2018-Feb-11 11:44N 52°08' E 003°44'0 0.1
2018-Feb-11 11:20N 52°08' E 003°44'0 0.0
2018-Feb-11 10:44N 52°08' E 003°44'0 0.0
2018-Feb-11 10:14N 52°08' E 003°44'0 0.0
2018-Feb-11 09:59N 52°08' E 003°44'0 0.0
2018-Feb-11 09:26N 52°08' E 003°44'0 0.1
2018-Feb-11 08:56N 52°08' E 003°44'0 0.1
2018-Feb-11 08:23N 52°08' E 003°44'0 0.0
2018-Feb-11 07:50N 52°08' E 003°44'0 0.2
2018-Feb-11 07:29N 52°08' E 003°44'0 0.1
2018-Feb-11 06:44N 52°08' E 003°44'0 0.0
2018-Feb-11 06:26N 52°08' E 003°44'0 0.1
2018-Feb-11 05:44N 52°08' E 003°44'0 0.2
2018-Feb-11 05:29N 52°08' E 003°44'0 0.1
2018-Feb-11 04:53N 52°08' E 003°44'0 0.2
2018-Feb-11 04:17N 52°08' E 003°44'0 0.1
2018-Feb-11 03:59N 52°08' E 003°44'0 0.1
2018-Feb-11 03:14N 52°08' E 003°44'0 0.0
2018-Feb-11 02:59N 52°08' E 003°44'0 0.1
2018-Feb-11 02:29N 52°08' E 003°44'0 0.1
2018-Feb-11 01:59N 52°08' E 003°44'0 0.0
2018-Feb-11 01:23N 52°08' E 003°44'0 0.0
2018-Feb-11 00:59N 52°08' E 003°44'0 0.0
2018-Feb-11 00:26N 52°08' E 003°44'0 0.1
2018-Feb-10 23:53N 52°08' E 003°44'0 0.1
2018-Feb-10 23:29N 52°08' E 003°44'0 0.1
2018-Feb-10 22:59N 52°08' E 003°44'0 0.0
2018-Feb-10 22:26N 52°08' E 003°44'0 0.0
2018-Feb-10 21:56N 52°08' E 003°44'0 0.0
2018-Feb-10 21:29N 52°08' E 003°44'0 0.0
2018-Feb-10 20:59N 52°08' E 003°44'0 0.0
2018-Feb-10 20:26N 52°08' E 003°44'0 0.1
2018-Feb-10 19:56N 52°08' E 003°44'0 0.2
2018-Feb-10 19:23N 52°08' E 003°44'0 0.1
2018-Feb-10 18:47N 52°08' E 003°44'0 0.1
2018-Feb-10 18:29N 52°08' E 003°44'0 0.0
2018-Feb-10 17:47N 52°08' E 003°44'0 0.0
2018-Feb-10 17:29N 52°08' E 003°44'0 0.0
2018-Feb-10 16:53N 52°08' E 003°44'0 0.1
2018-Feb-10 16:26N 52°08' E 003°44'0 0.0
2018-Feb-10 15:59N 52°08' E 003°44'0 0.1
2018-Feb-10 15:29N 52°08' E 003°44'0 0.0
2018-Feb-10 14:59N 52°08' E 003°44'0 0.0
2018-Feb-10 14:23N 52°08' E 003°44'0 0.1
2018-Feb-10 13:53N 52°08' E 003°44'0 0.0
2018-Feb-10 11:56N 52°08' E 003°44'0 0.0
2018-Feb-10 10:38N 52°08' E 003°44'0 0.0
2018-Feb-10 10:26N 52°08' E 003°44'0 0.0
2018-Feb-10 09:56N 52°08' E 003°44'0 0.0
2018-Feb-10 09:26N 52°08' E 003°44'0 0.0
2018-Feb-10 08:56N 52°08' E 003°44'0 0.1
2018-Feb-10 08:26N 52°08' E 003°44'0 0.0
2018-Feb-10 07:59N 52°08' E 003°44'0 0.1
2018-Feb-10 07:26N 52°08' E 003°44'0 0.0
2018-Feb-10 06:44N 52°08' E 003°44'0 0.0
2018-Feb-10 06:20N 52°08' E 003°44'  

Dump ship's entire track history